WEATHER DATA

YESTERDAY
Time Temp. Dewp. Hum. Bar. 1h Prec. 24h Prec.
00:08 12.9 7.1 68 1014.9 0.0000 0.0000
00:19 12.5 6.8 68 1014.9 0.0000 0.0000
00:29 12.2 6.7 69 1014.8 0.0000 0.0000
00:39 12 6.7 70 1014.8 0.0000 0.0000
00:48 11.9 6.8 71 1014.7 0.0000 0.0000
00:59 11.8 6.7 71 1014.7 0.0000 0.0000
01:09 11.7 6.8 72 1014.7 0.0000 0.0000
01:19 11.6 6.7 72 1014.7 0.0000 0.0000
01:29 11.5 6.6 72 1014.6 0.0000 0.0000
01:39 11.5 6.6 72 1014.6 0.0000 0.0000
01:49 11.5 6.8 73 1014.5 0.0000 0.0000
01:59 11.6 6.9 73 1014.5 0.0000 0.0000
02:10 11.7 7 73 1014.5 0.0000 0.0000
02:19 11.7 7 73 1014.4 0.0000 0.0000
02:29 11.6 6.9 73 1014.4 0.0000 0.0000
02:40 11.4 6.7 73 1014.3 0.0000 0.0000
02:50 11.2 6.7 74 1014.3 0.0000 0.0000
03:00 11.1 6.6 74 1014.2 0.0000 0.0000
03:09 10.8 6.4 74 1014.1 0.0000 0.0000
03:20 10.7 6.5 75 1014 0.0000 0.0000
03:30 10.5 6.3 75 1013.8 0.0000 0.0000
03:40 10.4 6.2 75 1013.8 0.0000 0.0000
03:50 10.2 6.2 76 1013.8 0.0000 0.0000
04:00 10.1 6.1 76 1013.8 0.0000 0.0000
04:10 9.9 5.9 76 1013.7 0.0000 0.0000
04:20 9.8 5.8 76 1013.6 0.0000 0.0000
04:31 9.8 6 77 1013.6 0.0000 0.0000
04:40 9.7 5.9 77 1013.5 0.0000 0.0000
04:50 9.7 5.9 77 1013.5 0.0000 0.0000
05:00 9.6 5.8 77 1013.5 0.0000 0.0000
05:11 9.5 5.7 77 1013.6 0.0000 0.0000
05:21 9.4 5.6 77 1013.5 0.0000 0.0000
05:30 9.3 5.7 78 1013.5 0.0000 0.0000
05:41 9.2 5.6 78 1013.6 0.0000 0.0000
05:51 9.2 5.6 78 1013.7 0.0000 0.0000
06:01 9.2 5.6 78 1013.8 0.0000 0.0000
06:11 9.4 5.9 79 1013.8 0.0000 0.0000
06:21 9.5 6 79 1013.8 0.0000 0.0000
06:31 9.6 6.1 79 1013.8 0.0000 0.0000
06:41 9.7 6.2 79 1014 0.0000 0.0000
06:52 9.8 6.3 79 1013.8 0.0000 0.0000
07:02 10.1 6.6 79 1014 0.0000 0.0000
07:11 10.8 7.5 80 1014 0.0000 0.0000
07:21 11.9 8.6 80 1014.1 0.0000 0.0000
07:32 13 9.6 80 1014.1 0.0000 0.0000
07:42 13.9 10.3 79 1014.1 0.0000 0.0000
07:51 14.2 10 76 1014.1 0.0000 0.0000
08:02 14.6 10.4 76 1014 0.0000 0.0000
08:12 15 10.8 76 1014 0.0000 0.0000
08:22 15.1 10.7 75 1014 0.0000 0.0000
08:32 15 10.4 74 1014 0.0000 0.0000
08:42 15 10.4 74 1014 0.0000 0.0000
08:52 15.2 10.4 73 1014 0.0000 0.0000
09:02 15.5 10.7 73 1014 0.0000 0.0000
09:13 15.8 11 73 1013.8 0.0000 0.0000
09:23 16.2 11.4 73 1013.8 0.0000 0.0000
09:32 16.7 11.6 72 1013.8 0.0000 0.0000
09:42 17.3 12.2 72 1013.8 0.0000 0.0000
09:53 17.9 12.6 71 1013.7 0.0000 0.0000
10:03 18.5 12.7 69 1013.7 0.0000 0.0000
10:13 18.9 12.9 68 1013.7 0.0000 0.0000
10:23 19.3 12.8 66 1013.8 0.0000 0.0000
10:33 19.9 13.1 65 1014 0.0000 0.0000
10:43 20.3 13 63 1013.8 0.0000 0.0000
10:53 20.6 12.8 61 1013.8 0.0000 0.0000
11:03 20.9 12.9 60 1013.8 0.0000 0.0000
11:13 20.7 12.1 58 1013.7 0.0000 0.0000
11:23 20.6 12.1 58 1013.7 0.0000 0.0000
11:34 21.1 12.5 58 1013.7 0.0000 0.0000
11:44 21.3 12.4 57 1013.7 0.0000 0.0000
11:53 21.4 12.3 56 1013.6 0.0000 0.0000
12:03 21.4 12.3 56 1013.6 0.0000 0.0000
12:14 21.8 12.4 55 1013.5 0.0000 0.0000
12:24 21.9 12.2 54 1013.5 0.0000 0.0000
12:34 22.3 12.8 55 1013.6 0.0000 0.0000
12:44 22 12 53 1013.5 0.0000 0.0000
12:54 22.4 12.4 53 1013.5 0.0000 0.0000
13:04 22.2 12.2 53 1013.5 0.0000 0.0000
13:14 22.7 12.3 52 1013.5 0.0000 0.0000
13:25 22.6 12 51 1013.4 0.0000 0.0000
13:34 23 12 50 1013.4 0.0000 0.0000
13:44 23.4 11.5 47 1013.4 0.0000 0.0000
13:55 23.4 11.5 47 1013.4 0.0000 0.0000
14:05 23.5 11.5 47 1013.3 0.0000 0.0000
14:14 23.5 11.5 47 1013.2 0.0000 0.0000
14:24 23.4 11.8 48 1013.1 0.0000 0.0000
14:35 23.8 11.8 47 1013.1 0.0000 0.0000
14:45 23.4 10.8 45 1013.1 0.0000 0.0000
14:55 23.5 11.5 47 1013 0.0000 0.0000
15:05 23.2 11 46 1012.9 0.0000 0.0000
15:15 23.3 11 46 1012.9 0.0000 0.0000
15:25 23.4 10.8 45 1012.9 0.0000 0.0000
15:35 23.9 11.3 45 1012.8 0.0000 0.0000
15:45 23.8 10.8 44 1012.8 0.0000 0.0000
15:55 23.8 10.8 44 1012.8 0.0000 0.0000
16:05 23.8 10.8 44 1012.7 0.0000 0.0000
16:16 23.6 10.6 44 1012.6 0.0000 0.0000
16:25 23.9 11.3 45 1012.5 0.0000 0.0000
16:35 24 10.7 43 1012.4 0.0000 0.0000
16:45 23.9 10.6 43 1012.3 0.0000 0.0000
16:56 23.8 10.1 42 1012.3 0.0000 0.0000
17:06 23.5 10.2 43 1012.2 0.0000 0.0000
17:15 23.3 10 43 1012.1 0.0000 0.0000
17:26 23.4 10.5 44 1012 0.0000 0.0000
17:36 23.5 10.9 45 1011.9 0.0000 0.0000
17:46 23.6 10.6 44 1011.8 0.0000 0.0000
17:56 23.4 10.1 43 1011.8 0.0000 0.0000
18:06 23.5 10.6 44 1011.8 0.0000 0.0000
18:16 23.5 10.6 44 1011.7 0.0000 0.0000
18:26 23.4 10.5 44 1011.7 0.0000 0.0000
18:36 23.4 10.5 44 1011.7 0.0000 0.0000
18:46 23.4 10.8 45 1011.7 0.0000 0.0000
18:56 23.4 10.8 45 1011.7 0.0000 0.0000
19:06 23.6 11 45 1011.7 0.0000 0.0000
19:17 24.2 11.9 46 1011.6 0.0000 0.0000
19:26 24.6 11.9 45 1011.6 0.0000 0.0000
19:36 25.2 12.4 45 1011.7 0.0000 0.0000
19:47 25.6 12.5 44 1011.8 0.0000 0.0000
19:57 26.3 13.4 45 1011.9 0.0000 0.0000
20:06 25.7 12.2 43 1011.9 0.0000 0.0000
20:16 24.1 11.1 44 1012 0.0000 0.0000
20:27 22.8 10.6 46 1012.1 0.0000 0.0000
20:37 21.8 10 47 1012.3 0.0000 0.0000
20:46 21.2 10.1 49 1012.3 0.0000 0.0000
20:57 20.5 9.7 50 1012.5 0.0000 0.0000
21:07 20.1 9.7 51 1012.6 0.0000 0.0000
21:17 19.6 9.5 52 1012.8 0.0000 0.0000
21:27 19.1 9.3 53 1012.9 0.0000 0.0000
21:37 18.8 9.3 54 1013 0.0000 0.0000
21:47 18.6 9.4 55 1013 0.0000 0.0000
21:57 18.5 9.3 55 1013.1 0.0000 0.0000
22:08 18.3 9.1 55 1013.1 0.0000 0.0000
22:17 18.2 9 55 1013.1 0.0000 0.0000
22:27 18 9.1 56 1013.1 0.0000 0.0000
22:37 17.9 9 56 1013.1 0.0000 0.0000
22:48 17.8 9.2 57 1013.1 0.0000 0.0000
22:58 17.6 9 57 1013.1 0.0000 0.0000
23:07 17.3 9 58 1013.1 0.0000 0.0000
23:18 17 9.2 60 1013.2 0.0000 0.0000
23:28 16.8 9.2 61 1013.2 0.0000 0.0000
23:38 16.7 9.4 62 1013.4 0.0000 0.0000
23:48 16.7 9.2 61 1013.4 0.0000 0.0000
23:58 16.7 9.2 61 1013.3 0.0000 0.0000

DAY STATISTIC

2019-05-24
TEMPERATURE
AVERAGE
17.7
HIGH
26.3
19:57
LOW
9.2
05:41
PRESSURE
AVERAGE
1013.3
HIGH
1014.9
00:08
LOW
1011.6
19:17
DEWPOINT
AVERAGE
9.6
HIGH
13.4
19:57
LOW
5.6
05:21
HUMIDITY
AVERAGE
61
HIGH
80
07:11
LOW
42
16:56
PRECIPITATION
RAIN HOUR
0.0
RAIN DAY
0.0
TEMPERATURE (°C)
LOW
9.2
HIGH
26.3
AVERAGE
17.7
PRESSURE (hpa)
LOW
1011.6
HIGH
1014.9
AVERAGE
1013.3
DEVICE